sensor_id;sensor_type;location;lat;lon;timestamp;pressure;altitude;pressure_sealevel;temperature;humidity
53659;BME280;41524;35.624;139.698;2023-02-18T00:00:15;102368.00;;;9.28;34.82
53659;BME280;41524;35.624;139.698;2023-02-18T00:05:12;102369.00;;;10.75;32.78
53659;BME280;41524;35.624;139.698;2023-02-18T00:10:13;102380.00;;;9.92;35.59
53659;BME280;41524;35.624;139.698;2023-02-18T00:15:15;102385.00;;;10.16;32.45
53659;BME280;41524;35.624;139.698;2023-02-18T00:20:14;102355.00;;;11.35;32.53
53659;BME280;41524;35.624;139.698;2023-02-18T00:25:15;102346.00;;;10.88;30.85
53659;BME280;41524;35.624;139.698;2023-02-18T00:30:13;102335.00;;;10.61;31.39
53659;BME280;41524;35.624;139.698;2023-02-18T00:35:12;102324.00;;;9.01;30.05
53659;BME280;41524;35.624;139.698;2023-02-18T00:40:11;102309.00;;;9.71;30.22
53659;BME280;41524;35.624;139.698;2023-02-18T00:45:11;102277.00;;;10.07;28.63
53659;BME280;41524;35.624;139.698;2023-02-18T00:50:11;102278.00;;;10.24;29.53
53659;BME280;41524;35.624;139.698;2023-02-18T00:55:13;102262.00;;;10.58;30.19
53659;BME280;41524;35.624;139.698;2023-02-18T01:00:15;102267.00;;;11.31;28.61
53659;BME280;41524;35.624;139.698;2023-02-18T01:05:11;102260.00;;;11.10;28.07
53659;BME280;41524;35.624;139.698;2023-02-18T01:10:16;102261.00;;;11.16;28.04
53659;BME280;41524;35.624;139.698;2023-02-18T01:15:19;102251.00;;;11.81;26.30
53659;BME280;41524;35.624;139.698;2023-02-18T01:20:17;102241.00;;;11.09;26.52
53659;BME280;41524;35.624;139.698;2023-02-18T01:25:12;102250.00;;;8.98;30.51
53659;BME280;41524;35.624;139.698;2023-02-18T01:30:15;102254.00;;;9.84;28.02
53659;BME280;41524;35.624;139.698;2023-02-18T01:35:17;102241.00;;;13.56;24.42
53659;BME280;41524;35.624;139.698;2023-02-18T01:40:19;102240.00;;;8.73;27.64
53659;BME280;41524;35.624;139.698;2023-02-18T01:46:18;102233.00;;;9.44;28.20
53659;BME280;41524;35.624;139.698;2023-02-18T01:50:11;102236.00;;;12.35;24.27
53659;BME280;41524;35.624;139.698;2023-02-18T01:55:11;102233.00;;;14.39;23.63
53659;BME280;41524;35.624;139.698;2023-02-18T02:00:18;102226.00;;;13.66;23.80
53659;BME280;41524;35.624;139.698;2023-02-18T02:05:12;102218.00;;;14.25;22.66
53659;BME280;41524;35.624;139.698;2023-02-18T02:10:17;102214.00;;;12.86;23.66
53659;BME280;41524;35.624;139.698;2023-02-18T02:15:31;102197.00;;;14.04;23.15
53659;BME280;41524;35.624;139.698;2023-02-18T02:25:38;102175.00;;;12.37;23.71
53659;BME280;41524;35.624;139.698;2023-02-18T02:35:19;102162.00;;;13.74;22.53
53659;BME280;41524;35.624;139.698;2023-02-18T02:40:20;102153.00;;;12.14;24.56
53659;BME280;41524;35.624;139.698;2023-02-18T02:45:18;102141.00;;;12.91;25.31
53659;BME280;41524;35.624;139.698;2023-02-18T02:50:15;102126.00;;;13.68;25.85
53659;BME280;41524;35.624;139.698;2023-02-18T02:55:12;102111.00;;;12.43;25.02
53659;BME280;41524;35.624;139.698;2023-02-18T03:00:18;102097.00;;;14.28;22.97
53659;BME280;41524;35.624;139.698;2023-02-18T03:05:19;102070.00;;;12.50;27.02
53659;BME280;41524;35.624;139.698;2023-02-18T03:10:27;102043.00;;;12.49;28.20
53659;BME280;41524;35.624;139.698;2023-02-18T03:15:19;102041.00;;;13.02;27.86
53659;BME280;41524;35.624;139.698;2023-02-18T03:20:21;102060.00;;;11.70;30.95
53659;BME280;41524;35.624;139.698;2023-02-18T03:25:12;102039.00;;;13.13;30.21
53659;BME280;41524;35.624;139.698;2023-02-18T03:30:15;102045.00;;;12.78;32.21
53659;BME280;41524;35.624;139.698;2023-02-18T03:35:16;102012.00;;;12.79;32.33
53659;BME280;41524;35.624;139.698;2023-02-18T03:40:12;102006.00;;;11.86;29.94
53659;BME280;41524;35.624;139.698;2023-02-18T03:45:17;102007.00;;;12.00;31.05
53659;BME280;41524;35.624;139.698;2023-02-18T03:50:11;101989.00;;;12.45;32.17
53659;BME280;41524;35.624;139.698;2023-02-18T03:55:12;101973.00;;;12.14;29.42
53659;BME280;41524;35.624;139.698;2023-02-18T04:00:16;101970.00;;;12.33;30.90
53659;BME280;41524;35.624;139.698;2023-02-18T04:05:11;101946.00;;;13.01;26.84
53659;BME280;41524;35.624;139.698;2023-02-18T04:10:11;101926.00;;;12.73;26.79
53659;BME280;41524;35.624;139.698;2023-02-18T04:15:15;101896.00;;;12.61;25.66
53659;BME280;41524;35.624;139.698;2023-02-18T04:20:18;101905.00;;;13.37;26.28
53659;BME280;41524;35.624;139.698;2023-02-18T04:25:10;101923.00;;;13.41;25.38
53659;BME280;41524;35.624;139.698;2023-02-18T04:30:11;101913.00;;;12.59;26.11
53659;BME280;41524;35.624;139.698;2023-02-18T04:35:13;101913.00;;;12.27;24.75
53659;BME280;41524;35.624;139.698;2023-02-18T04:40:16;101913.00;;;14.11;25.47
53659;BME280;41524;35.624;139.698;2023-02-18T04:45:11;101886.00;;;14.00;23.27
53659;BME280;41524;35.624;139.698;2023-02-18T04:50:12;101898.00;;;13.94;24.22
53659;BME280;41524;35.624;139.698;2023-02-18T04:55:11;101892.00;;;12.31;27.87
53659;BME280;41524;35.624;139.698;2023-02-18T05:00:15;101902.00;;;13.19;27.83
53659;BME280;41524;35.624;139.698;2023-02-18T05:05:11;101906.00;;;13.17;28.65
53659;BME280;41524;35.624;139.698;2023-02-18T05:10:17;101892.00;;;13.02;29.31
53659;BME280;41524;35.624;139.698;2023-02-18T05:15:11;101875.00;;;13.82;28.80
53659;BME280;41524;35.624;139.698;2023-02-18T05:20:12;101872.00;;;13.07;29.85
53659;BME280;41524;35.624;139.698;2023-02-18T05:25:15;101870.00;;;13.60;30.15
53659;BME280;41524;35.624;139.698;2023-02-18T05:30:11;101856.00;;;13.43;30.04
53659;BME280;41524;35.624;139.698;2023-02-18T05:35:10;101855.00;;;13.97;29.36
53659;BME280;41524;35.624;139.698;2023-02-18T05:40:12;101859.00;;;14.85;27.73
53659;BME280;41524;35.624;139.698;2023-02-18T05:45:12;101863.00;;;14.00;28.42
53659;BME280;41524;35.624;139.698;2023-02-18T05:50:20;101856.00;;;12.62;29.91
53659;BME280;41524;35.624;139.698;2023-02-18T05:55:15;101844.00;;;12.54;31.16
53659;BME280;41524;35.624;139.698;2023-02-18T06:00:12;101841.00;;;12.38;32.35
53659;BME280;41524;35.624;139.698;2023-02-18T06:05:12;101843.00;;;12.78;31.98
53659;BME280;41524;35.624;139.698;2023-02-18T06:10:11;101839.00;;;12.94;32.07
53659;BME280;41524;35.624;139.698;2023-02-18T06:15:21;101828.00;;;13.31;32.78
53659;BME280;41524;35.624;139.698;2023-02-18T06:20:11;101821.00;;;12.15;34.40
53659;BME280;41524;35.624;139.698;2023-02-18T06:25:12;101840.00;;;13.40;32.73
53659;BME280;41524;35.624;139.698;2023-02-18T06:35:16;101836.00;;;13.73;32.57
53659;BME280;41524;35.624;139.698;2023-02-18T06:40:11;101819.00;;;13.61;32.72
53659;BME280;41524;35.624;139.698;2023-02-18T06:45:12;101805.00;;;15.22;31.44
53659;BME280;41524;35.624;139.698;2023-02-18T06:50:11;101805.00;;;21.29;24.91
53659;BME280;41524;35.624;139.698;2023-02-18T06:55:12;101807.00;;;18.93;25.09
53659;BME280;41524;35.624;139.698;2023-02-18T07:00:11;101815.00;;;16.72;26.98
53659;BME280;41524;35.624;139.698;2023-02-18T07:05:15;101803.00;;;19.04;25.07
53659;BME280;41524;35.624;139.698;2023-02-18T07:10:11;101796.00;;;18.54;25.39
53659;BME280;41524;35.624;139.698;2023-02-18T07:15:11;101817.00;;;15.99;27.87
53659;BME280;41524;35.624;139.698;2023-02-18T07:20:15;101827.00;;;13.18;32.24
53659;BME280;41524;35.624;139.698;2023-02-18T07:25:11;101822.00;;;11.75;35.77
53659;BME280;41524;35.624;139.698;2023-02-18T07:30:16;101811.00;;;11.77;37.59
53659;BME280;41524;35.624;139.698;2023-02-18T07:35:15;101798.00;;;10.73;39.92
53659;BME280;41524;35.624;139.698;2023-02-18T07:40:18;101798.00;;;10.81;41.54
53659;BME280;41524;35.624;139.698;2023-02-18T07:45:15;101798.00;;;11.57;42.14
53659;BME280;41524;35.624;139.698;2023-02-18T07:50:11;101800.00;;;11.55;42.35
53659;BME280;41524;35.624;139.698;2023-02-18T07:55:10;101796.00;;;10.19;43.25
53659;BME280;41524;35.624;139.698;2023-02-18T08:00:11;101813.00;;;11.23;41.82
53659;BME280;41524;35.624;139.698;2023-02-18T08:05:11;101810.00;;;11.15;42.62
53659;BME280;41524;35.624;139.698;2023-02-18T08:10:10;101822.00;;;9.68;45.23
53659;BME280;41524;35.624;139.698;2023-02-18T08:15:16;101835.00;;;10.46;44.35
53659;BME280;41524;35.624;139.698;2023-02-18T08:20:11;101823.00;;;11.13;44.29
53659;BME280;41524;35.624;139.698;2023-02-18T08:25:10;101825.00;;;12.04;43.63
53659;BME280;41524;35.624;139.698;2023-02-18T08:30:16;101831.00;;;10.30;47.18
53659;BME280;41524;35.624;139.698;2023-02-18T08:35:11;101842.00;;;11.51;45.56
53659;BME280;41524;35.624;139.698;2023-02-18T08:40:16;101823.00;;;12.36;45.19
53659;BME280;41524;35.624;139.698;2023-02-18T08:45:21;101802.00;;;11.51;46.34
53659;BME280;41524;35.624;139.698;2023-02-18T08:50:13;101816.00;;;11.08;47.51
53659;BME280;41524;35.624;139.698;2023-02-18T08:55:15;101807.00;;;12.45;45.86
53659;BME280;41524;35.624;139.698;2023-02-18T09:00:12;101799.00;;;11.79;46.79
53659;BME280;41524;35.624;139.698;2023-02-18T09:05:16;101804.00;;;10.70;48.68
53659;BME280;41524;35.624;139.698;2023-02-18T09:10:11;101809.00;;;11.57;47.29
53659;BME280;41524;35.624;139.698;2023-02-18T09:15:10;101795.00;;;12.03;46.80
53659;BME280;41524;35.624;139.698;2023-02-18T09:20:15;101798.00;;;11.00;48.64
53659;BME280;41524;35.624;139.698;2023-02-18T09:25:11;101780.00;;;12.42;46.34
53659;BME280;41524;35.624;139.698;2023-02-18T09:30:16;101777.00;;;12.04;46.59
53659;BME280;41524;35.624;139.698;2023-02-18T09:35:15;101776.00;;;11.91;47.25
53659;BME280;41524;35.624;139.698;2023-02-18T09:45:16;101788.00;;;11.95;47.83
53659;BME280;41524;35.624;139.698;2023-02-18T09:50:21;101794.00;;;11.22;48.67
53659;BME280;41524;35.624;139.698;2023-02-18T09:55:21;101789.00;;;11.30;48.45
53659;BME280;41524;35.624;139.698;2023-02-18T10:00:21;101781.00;;;10.80;49.23
53659;BME280;41524;35.624;139.698;2023-02-18T10:05:13;101762.00;;;10.81;49.37
53659;BME280;41524;35.624;139.698;2023-02-18T10:15:22;101752.00;;;10.87;49.85
53659;BME280;41524;35.624;139.698;2023-02-18T10:20:21;101728.00;;;10.36;50.71
53659;BME280;41524;35.624;139.698;2023-02-18T10:25:23;101719.00;;;11.81;48.41
53659;BME280;41524;35.624;139.698;2023-02-18T10:30:23;101695.00;;;10.86;50.17
53659;BME280;41524;35.624;139.698;2023-02-18T10:35:18;101724.00;;;10.31;53.46
53659;BME280;41524;35.624;139.698;2023-02-18T10:40:13;101743.00;;;10.33;53.41
53659;BME280;41524;35.624;139.698;2023-02-18T10:45:29;101690.00;;;10.34;53.75
53659;BME280;41524;35.624;139.698;2023-02-18T10:50:24;101716.00;;;10.29;54.74
53659;BME280;41524;35.624;139.698;2023-02-18T10:55:16;101742.00;;;10.74;53.41
53659;BME280;41524;35.624;139.698;2023-02-18T11:00:19;101746.00;;;10.15;54.26
53659;BME280;41524;35.624;139.698;2023-02-18T11:05:23;101734.00;;;9.23;56.55
53659;BME280;41524;35.624;139.698;2023-02-18T11:10:18;101743.00;;;10.45;53.60
53659;BME280;41524;35.624;139.698;2023-02-18T11:15:23;101747.00;;;9.87;54.67
53659;BME280;41524;35.624;139.698;2023-02-18T11:20:27;101714.00;;;10.23;54.00
53659;BME280;41524;35.624;139.698;2023-02-18T11:25:21;101700.00;;;10.30;53.54
53659;BME280;41524;35.624;139.698;2023-02-18T11:30:20;101693.00;;;9.46;55.69
53659;BME280;41524;35.624;139.698;2023-02-18T11:35:24;101667.00;;;8.22;59.36
53659;BME280;41524;35.624;139.698;2023-02-18T11:40:28;101663.00;;;9.42;57.28
53659;BME280;41524;35.624;139.698;2023-02-18T11:45:29;101655.00;;;9.57;56.26
53659;BME280;41524;35.624;139.698;2023-02-18T11:50:20;101653.00;;;10.48;54.05
53659;BME280;41524;35.624;139.698;2023-02-18T11:55:16;101625.00;;;9.49;55.75
53659;BME280;41524;35.624;139.698;2023-02-18T12:00:20;101613.00;;;9.66;55.17
53659;BME280;41524;35.624;139.698;2023-02-18T12:05:20;101579.00;;;10.69;53.33
53659;BME280;41524;35.624;139.698;2023-02-18T12:10:14;101562.00;;;10.49;53.41
53659;BME280;41524;35.624;139.698;2023-02-18T12:15:33;101524.00;;;10.31;54.48
53659;BME280;41524;35.624;139.698;2023-02-18T12:20:27;101553.00;;;10.01;55.24
53659;BME280;41524;35.624;139.698;2023-02-18T12:25:27;101544.00;;;10.11;54.52
53659;BME280;41524;35.624;139.698;2023-02-18T12:30:31;101563.00;;;10.18;54.44
53659;BME280;41524;35.624;139.698;2023-02-18T12:35:27;101537.00;;;9.95;55.08
53659;BME280;41524;35.624;139.698;2023-02-18T12:40:31;101561.00;;;10.45;54.19
53659;BME280;41524;35.624;139.698;2023-02-18T12:45:28;101557.00;;;10.41;54.16
53659;BME280;41524;35.624;139.698;2023-02-18T12:50:39;101558.00;;;10.37;54.08
53659;BME280;41524;35.624;139.698;2023-02-18T12:55:34;101568.00;;;9.92;54.98
53659;BME280;41524;35.624;139.698;2023-02-18T13:00:46;101551.00;;;9.13;56.18
53659;BME280;41524;35.624;139.698;2023-02-18T13:10:41;101519.00;;;9.65;55.53
53659;BME280;41524;35.624;139.698;2023-02-18T13:15:17;101499.00;;;9.90;55.19
53659;BME280;41524;35.624;139.698;2023-02-18T13:20:20;101496.00;;;9.83;55.03
53659;BME280;41524;35.624;139.698;2023-02-18T13:25:13;101514.00;;;9.00;56.85
53659;BME280;41524;35.624;139.698;2023-02-18T13:30:21;101517.00;;;9.02;55.84
53659;BME280;41524;35.624;139.698;2023-02-18T13:35:22;101506.00;;;10.13;52.50
53659;BME280;41524;35.624;139.698;2023-02-18T13:40:18;101524.00;;;9.48;51.55
53659;BME280;41524;35.624;139.698;2023-02-18T13:45:28;101523.00;;;9.37;51.43
53659;BME280;41524;35.624;139.698;2023-02-18T13:50:28;101495.00;;;8.96;51.01
53659;BME280;41524;35.624;139.698;2023-02-18T13:55:19;101512.00;;;8.62;50.66
53659;BME280;41524;35.624;139.698;2023-02-18T14:00:19;101502.00;;;9.10;49.23
53659;BME280;41524;35.624;139.698;2023-02-18T14:05:21;101492.00;;;8.69;50.09
53659;BME280;41524;35.624;139.698;2023-02-18T14:11:34;101470.00;;;8.77;48.98
53659;BME280;41524;35.624;139.698;2023-02-18T14:15:52;101486.00;;;8.85;48.37
53659;BME280;41524;35.624;139.698;2023-02-18T14:20:48;101434.00;;;8.77;47.92
53659;BME280;41524;35.624;139.698;2023-02-18T14:25:26;101414.00;;;8.95;47.21
53659;BME280;41524;35.624;139.698;2023-02-18T14:30:19;101415.00;;;9.09;46.68
53659;BME280;41524;35.624;139.698;2023-02-18T14:35:22;101434.00;;;8.50;47.54
53659;BME280;41524;35.624;139.698;2023-02-18T14:40:36;101408.00;;;8.36;48.50
53659;BME280;41524;35.624;139.698;2023-02-18T14:45:28;101409.00;;;10.24;44.71
53659;BME280;41524;35.624;139.698;2023-02-18T14:50:18;101410.00;;;8.36;47.22
53659;BME280;41524;35.624;139.698;2023-02-18T14:55:22;101402.00;;;9.52;44.77
53659;BME280;41524;35.624;139.698;2023-02-18T15:00:19;101373.00;;;8.63;46.19
53659;BME280;41524;35.624;139.698;2023-02-18T15:05:18;101338.00;;;8.86;45.82
53659;BME280;41524;35.624;139.698;2023-02-18T15:10:14;101293.00;;;8.49;45.71
53659;BME280;41524;35.624;139.698;2023-02-18T15:15:14;101299.00;;;9.94;43.66
53659;BME280;41524;35.624;139.698;2023-02-18T15:20:16;101245.00;;;8.76;44.75
53659;BME280;41524;35.624;139.698;2023-02-18T15:25:13;101213.00;;;8.85;43.97
53659;BME280;41524;35.624;139.698;2023-02-18T15:30:23;101200.00;;;9.36;43.45
53659;BME280;41524;35.624;139.698;2023-02-18T15:35:17;101167.00;;;9.22;43.64
53659;BME280;41524;35.624;139.698;2023-02-18T15:45:24;101255.00;;;8.90;44.38
53659;BME280;41524;35.624;139.698;2023-02-18T15:50:18;101246.00;;;8.60;44.96
53659;BME280;41524;35.624;139.698;2023-02-18T15:55:21;101247.00;;;7.67;46.09
53659;BME280;41524;35.624;139.698;2023-02-18T16:00:18;101251.00;;;8.22;45.08
53659;BME280;41524;35.624;139.698;2023-02-18T16:05:14;101248.00;;;8.53;43.46
53659;BME280;41524;35.624;139.698;2023-02-18T16:10:20;101230.00;;;8.06;42.97
53659;BME280;41524;35.624;139.698;2023-02-18T16:15:26;101197.00;;;8.44;41.99
53659;BME280;41524;35.624;139.698;2023-02-18T16:20:26;101207.00;;;9.56;40.52
53659;BME280;41524;35.624;139.698;2023-02-18T16:25:16;101197.00;;;8.86;41.35
53659;BME280;41524;35.624;139.698;2023-02-18T16:30:17;101191.00;;;7.07;44.62
53659;BME280;41524;35.624;139.698;2023-02-18T16:35:11;101181.00;;;8.68;40.76
53659;BME280;41524;35.624;139.698;2023-02-18T16:40:26;101193.00;;;9.50;40.20
53659;BME280;41524;35.624;139.698;2023-02-18T16:45:13;101199.00;;;9.02;40.41
53659;BME280;41524;35.624;139.698;2023-02-18T16:50:18;101182.00;;;8.19;40.88
53659;BME280;41524;35.624;139.698;2023-02-18T16:55:17;101165.00;;;8.86;40.55
53659;BME280;41524;35.624;139.698;2023-02-18T17:00:18;101148.00;;;8.73;40.97
53659;BME280;41524;35.624;139.698;2023-02-18T17:05:15;101132.00;;;8.04;41.24
53659;BME280;41524;35.624;139.698;2023-02-18T17:10:12;101125.00;;;8.65;40.60
53659;BME280;41524;35.624;139.698;2023-02-18T17:15:23;101093.00;;;9.00;39.77
53659;BME280;41524;35.624;139.698;2023-02-18T17:20:11;101083.00;;;8.49;40.28
53659;BME280;41524;35.624;139.698;2023-02-18T17:25:16;101082.00;;;9.02;40.26
53659;BME280;41524;35.624;139.698;2023-02-18T17:30:12;101081.00;;;9.46;39.68
53659;BME280;41524;35.624;139.698;2023-02-18T17:35:16;101065.00;;;10.18;38.54
53659;BME280;41524;35.624;139.698;2023-02-18T17:45:18;101047.00;;;8.84;40.39
53659;BME280;41524;35.624;139.698;2023-02-18T17:50:12;101039.00;;;9.03;40.37
53659;BME280;41524;35.624;139.698;2023-02-18T17:55:18;101017.00;;;9.27;40.61
53659;BME280;41524;35.624;139.698;2023-02-18T18:00:13;101009.00;;;8.66;41.44
53659;BME280;41524;35.624;139.698;2023-02-18T18:05:25;100999.00;;;8.57;41.84
53659;BME280;41524;35.624;139.698;2023-02-18T18:10:11;100975.00;;;8.51;42.40
53659;BME280;41524;35.624;139.698;2023-02-18T18:15:23;100959.00;;;8.81;41.89
53659;BME280;41524;35.624;139.698;2023-02-18T18:20:11;100942.00;;;9.07;42.11
53659;BME280;41524;35.624;139.698;2023-02-18T18:25:17;100901.00;;;8.79;42.28
53659;BME280;41524;35.624;139.698;2023-02-18T18:30:12;100893.00;;;8.47;42.46
53659;BME280;41524;35.624;139.698;2023-02-18T18:35:20;100902.00;;;9.25;42.09
53659;BME280;41524;35.624;139.698;2023-02-18T18:40:11;100887.00;;;8.39;44.33
53659;BME280;41524;35.624;139.698;2023-02-18T18:45:17;100889.00;;;9.30;43.20
53659;BME280;41524;35.624;139.698;2023-02-18T18:50:12;100878.00;;;8.23;44.40
53659;BME280;41524;35.624;139.698;2023-02-18T18:55:20;100851.00;;;9.11;43.22
53659;BME280;41524;35.624;139.698;2023-02-18T19:00:16;100863.00;;;8.79;43.21
53659;BME280;41524;35.624;139.698;2023-02-18T19:05:23;100826.00;;;9.57;41.94
53659;BME280;41524;35.624;139.698;2023-02-18T19:10:12;100830.00;;;8.65;42.47
53659;BME280;41524;35.624;139.698;2023-02-18T19:15:19;100820.00;;;8.34;43.17
53659;BME280;41524;35.624;139.698;2023-02-18T19:20:13;100854.00;;;8.90;41.46
53659;BME280;41524;35.624;139.698;2023-02-18T19:25:16;100842.00;;;8.16;42.47
53659;BME280;41524;35.624;139.698;2023-02-18T19:30:14;100843.00;;;8.37;42.27
53659;BME280;41524;35.624;139.698;2023-02-18T19:35:11;100845.00;;;8.43;42.07
53659;BME280;41524;35.624;139.698;2023-02-18T19:40:14;100843.00;;;8.76;41.72
53659;BME280;41524;35.624;139.698;2023-02-18T19:45:11;100848.00;;;8.67;41.65
53659;BME280;41524;35.624;139.698;2023-02-18T19:50:14;100851.00;;;8.86;41.26
53659;BME280;41524;35.624;139.698;2023-02-18T19:55:12;100850.00;;;9.66;39.93
53659;BME280;41524;35.624;139.698;2023-02-18T20:00:14;100833.00;;;8.43;40.86
53659;BME280;41524;35.624;139.698;2023-02-18T20:05:13;100827.00;;;8.21;41.40
53659;BME280;41524;35.624;139.698;2023-02-18T20:10:14;100815.00;;;8.52;40.29
53659;BME280;41524;35.624;139.698;2023-02-18T20:15:14;100793.00;;;9.11;39.18
53659;BME280;41524;35.624;139.698;2023-02-18T20:20:16;100756.00;;;8.20;40.44
53659;BME280;41524;35.624;139.698;2023-02-18T20:25:11;100745.00;;;8.01;40.82
53659;BME280;41524;35.624;139.698;2023-02-18T20:30:12;100744.00;;;9.23;39.16
53659;BME280;41524;35.624;139.698;2023-02-18T20:35:10;100746.00;;;8.51;38.62
53659;BME280;41524;35.624;139.698;2023-02-18T20:40:11;100739.00;;;8.71;38.00
53659;BME280;41524;35.624;139.698;2023-02-18T20:45:12;100732.00;;;8.77;37.59
53659;BME280;41524;35.624;139.698;2023-02-18T20:50:11;100719.00;;;7.98;38.41
53659;BME280;41524;35.624;139.698;2023-02-18T20:55:11;100722.00;;;8.44;38.13
53659;BME280;41524;35.624;139.698;2023-02-18T21:00:12;100728.00;;;7.52;39.16
53659;BME280;41524;35.624;139.698;2023-02-18T21:05:13;100760.00;;;7.61;39.31
53659;BME280;41524;35.624;139.698;2023-02-18T21:10:11;100750.00;;;7.98;38.76
53659;BME280;41524;35.624;139.698;2023-02-18T21:15:17;100728.00;;;5.96;41.57
53659;BME280;41524;35.624;139.698;2023-02-18T21:20:10;100725.00;;;8.56;38.31
53659;BME280;41524;35.624;139.698;2023-02-18T21:25:11;100735.00;;;8.39;37.61
53659;BME280;41524;35.624;139.698;2023-02-18T21:30:15;100700.00;;;9.27;36.84
53659;BME280;41524;35.624;139.698;2023-02-18T21:35:11;100683.00;;;9.03;36.89
53659;BME280;41524;35.624;139.698;2023-02-18T21:40:11;100664.00;;;7.84;37.57
53659;BME280;41524;35.624;139.698;2023-02-18T21:45:12;100629.00;;;8.00;38.38
53659;BME280;41524;35.624;139.698;2023-02-18T21:50:13;100619.00;;;6.00;41.36
53659;BME280;41524;35.624;139.698;2023-02-18T21:55:15;100601.00;;;6.17;41.40
53659;BME280;41524;35.624;139.698;2023-02-18T22:00:12;100621.00;;;8.41;38.57
53659;BME280;41524;35.624;139.698;2023-02-18T22:05:11;100606.00;;;8.03;38.53
53659;BME280;41524;35.624;139.698;2023-02-18T22:10:13;100601.00;;;9.96;36.13
53659;BME280;41524;35.624;139.698;2023-02-18T22:15:11;100591.00;;;7.97;38.45
53659;BME280;41524;35.624;139.698;2023-02-18T22:20:13;100595.00;;;9.82;36.87
53659;BME280;41524;35.624;139.698;2023-02-18T22:25:11;100605.00;;;8.35;38.07
53659;BME280;41524;35.624;139.698;2023-02-18T22:30:16;100631.00;;;8.59;37.69
53659;BME280;41524;35.624;139.698;2023-02-18T22:35:17;100617.00;;;8.14;38.69
53659;BME280;41524;35.624;139.698;2023-02-18T22:40:15;100619.00;;;7.21;39.56
53659;BME280;41524;35.624;139.698;2023-02-18T22:45:11;100608.00;;;7.53;39.12
53659;BME280;41524;35.624;139.698;2023-02-18T22:50:18;100615.00;;;7.54;39.23
53659;BME280;41524;35.624;139.698;2023-02-18T22:55:10;100599.00;;;8.56;37.82
53659;BME280;41524;35.624;139.698;2023-02-18T23:00:16;100603.00;;;8.69;37.63
53659;BME280;41524;35.624;139.698;2023-02-18T23:05:16;100594.00;;;8.12;38.63
53659;BME280;41524;35.624;139.698;2023-02-18T23:10:11;100585.00;;;7.89;39.05
53659;BME280;41524;35.624;139.698;2023-02-18T23:15:12;100557.00;;;8.13;38.74
53659;BME280;41524;35.624;139.698;2023-02-18T23:20:13;100532.00;;;8.45;38.83
53659;BME280;41524;35.624;139.698;2023-02-18T23:25:14;100529.00;;;9.82;37.49
53659;BME280;41524;35.624;139.698;2023-02-18T23:30:21;100524.00;;;9.60;37.27
53659;BME280;41524;35.624;139.698;2023-02-18T23:35:17;100520.00;;;8.78;38.79
53659;BME280;41524;35.624;139.698;2023-02-18T23:40:11;100520.00;;;8.17;40.02
53659;BME280;41524;35.624;139.698;2023-02-18T23:45:11;100523.00;;;8.32;40.00
53659;BME280;41524;35.624;139.698;2023-02-18T23:50:11;100505.00;;;8.74;39.34
53659;BME280;41524;35.624;139.698;2023-02-18T23:55:11;100504.00;;;9.74;38.53
